YSSY Airport Information

Runway Information
Runway 07 Length 8300 ft width 148 ft
Elevation 16 ft Threshold 0 ft Heading 74
Runway 25 Length 8300 ft Width 148 ft
Elevation 20 ft Threshold 324 ft Heading 254
Runway 16L Length 7999 ft width 148 ft
Elevation 16 ft Threshold 758 ft Heading 168
Runway 34R Length 7999 ft Width 148 ft
Elevation 13 ft Threshold 125 ft Heading 348
Runway 16R Length 12999 ft width 148 ft
Elevation 8 ft Threshold 279 ft Heading 168
Runway 34L Length 12999 ft Width 148 ft
Elevation 14 ft Threshold 0 ft Heading 348
Airport Frequencies
Type APP Name APP Frequency 135.1 MHZ
Type ATIS Name ATIS Frequency 126.25 MHZ
Type CLD Name CLNC DEL Frequency 133.8 MHZ
Type DEP Name DEP Frequency 123 MHZ
Type GND Name GND Frequency 121.7 MHZ
Type OPS Name RAAF AIR O Frequency 1123.5 MHZ
Type TWR Name TWR Frequency 120.5 MHZ
Airport Navaids
Type NDB Name Glenfield Frequency 428 KHZ
Type VOR-DME Name Sydney Frequency 112100 KHZ
Airport Weather Information & NOTAM
ADDS - METARS form results

(0811 UTC 22 May 2018)
 
METAR text: YSSY 220800Z 26014KT CAVOK 20/07 Q1019
Conditions at: YSSY (SYDNEY INTL AIRP, AU) observed 0800 UTC 22 May 2018
Temperature: 20.0°C (68°F)
Dewpoint: 7.0°C (45°F) [RH = 43%]
Pressure (altimeter): 30.09 inches Hg (1019.0 mb)
Winds: from the W (260 degrees) at 16 MPH (14 knots; 7.3 m/s)
Visibility: 6 or more miles (10+ km)
Ceiling: ceiling and visibility are OK
Clouds: unknown
Weather: no significant weather observed at this time

METAR text: YSSY 220730Z 26013KT CAVOK 20/07 Q1018 NOSIG
Conditions at: YSSY (SYDNEY INTL AIRP, AU) observed 0730 UTC 22 May 2018
Temperature: 20.0°C (68°F)
Dewpoint: 7.0°C (45°F) [RH = 43%]
Pressure (altimeter): 30.06 inches Hg (1018.0 mb)
Winds: from the W (260 degrees) at 15 MPH (13 knots; 6.8 m/s)
Visibility: 6 or more miles (10+ km)
Ceiling: ceiling and visibility are OK
Clouds: unknown
Weather: no significant weather observed at this time